Time;durP1;ratioP1;P1;durP2;ratioP2;P2;SDS_P1;SDS_P2;PMS_P1;PMS_P2;Temp;Humidity;BMP_temperature;BMP_pressure;BME280_temperature;BME280_humidity;BME280_pressure;Samples;Min_cycle;Max_cycle;Signal;HPM_P1;HPM_P2
2022/12/04 00:02:08;;;;;;;;;;;23.60;93.80;;;;;;5054510;28;19950;-78
2022/12/04 00:04:35;;;;;;;;;;;23.90;92.90;;;;;;5044646;28;19986;-72
2022/12/04 00:07:02;;;;;;;;;;;24.00;92.90;;;;;;5033727;28;19920;-74
2022/12/04 00:09:29;;;;;;;;;;;24.20;92.30;;;;;;5042315;28;20546;-73
2022/12/04 00:11:55;;;;;;;;;;;24.50;92.40;;;;;;5053452;28;19908;-79
2022/12/04 00:14:22;;;;;;;;;;;24.60;91.90;;;;;;5053655;28;19913;-72
2022/12/04 00:16:49;;;;;;;;;;;24.60;90.80;;;;;;5056102;28;20001;-74
2022/12/04 00:19:16;;;;;;;;;;;24.70;91.10;;;;;;5035983;28;19916;-71
2022/12/04 00:21:44;;;;;;;;;;;24.90;90.90;;;;;;5041520;28;19919;-76
2022/12/04 00:24:10;;;;;;;;;;;25.10;89.50;;;;;;5035347;28;20386;-75
2022/12/04 00:26:37;;;;;;;;;;;25.10;87.00;;;;;;5038286;28;19913;-74
2022/12/04 00:29:04;;;;;;;;;;;24.80;85.70;;;;;;5039439;28;19972;-72
2022/12/04 00:31:30;;;;;;;;;;;24.70;88.00;;;;;;5055835;28;19915;-73
2022/12/04 00:33:57;;;;;;;;;;;24.40;88.50;;;;;;5058127;28;19913;-72
2022/12/04 00:36:25;;;;;;;;;;;24.20;89.10;;;;;;5060100;28;19923;-74
2022/12/04 00:38:52;;;;;;;;;;;24.20;90.50;;;;;;5053679;28;19913;-71
2022/12/04 00:41:21;;;;;;;;;;;24.50;89.50;;;;;;5057447;28;19914;-72
2022/12/04 00:43:47;;;;;;;;;;;24.50;90.20;;;;;;5037971;28;19924;-70
2022/12/04 00:46:15;;;;;;;;;;;24.20;90.40;;;;;;5044316;28;19909;-71
2022/12/04 00:48:42;;;;;;;;;;;23.90;90.50;;;;;;5054375;28;20357;-69
2022/12/04 00:51:10;;;;;;;;;;;23.80;91.40;;;;;;5045194;28;19930;-71
2022/12/04 00:53:38;;;;;;;;;;;23.90;91.50;;;;;;5059664;28;19913;-70
2022/12/04 00:56:05;;;;;;;;;;;24.30;91.20;;;;;;5057053;28;19916;-70
2022/12/04 00:58:32;;;;;;;;;;;24.70;90.80;;;;;;5055028;28;19912;-69
2022/12/04 01:01:06;;;;;;;;;;;25.00;89.80;;;;;;5039500;28;19917;-68
2022/12/04 01:03:33;;;;;;;;;;;25.30;90.10;;;;;;5054971;28;20333;-70
2022/12/04 01:06:00;;;;;;;;;;;25.50;88.60;;;;;;5057569;28;19912;-70
2022/12/04 01:08:27;;;;;;;;;;;25.80;88.40;;;;;;5057830;28;19908;-72
2022/12/04 01:10:54;;;;;;;;;;;26.20;87.60;;;;;;5052411;28;19995;-70
2022/12/04 01:13:21;;;;;;;;;;;26.30;87.90;;;;;;5058814;28;20365;-70
2022/12/04 01:15:48;;;;;;;;;;;26.50;85.30;;;;;;5057161;28;19917;-71
2022/12/04 01:18:15;;;;;;;;;;;26.50;83.60;;;;;;5058363;28;19912;-70
2022/12/04 01:20:51;;;;;;;;;;;26.50;85.90;;;;;;5057180;28;19908;-77
2022/12/04 01:23:18;;;;;;;;;;;26.50;84.90;;;;;;5057432;28;19932;-72
2022/12/04 01:25:52;;;;;;;;;;;26.70;85.10;;;;;;5057896;28;19931;-73
2022/12/04 01:28:18;;;;;;;;;;;26.80;85.30;;;;;;5047517;28;20307;-76
2022/12/04 01:30:45;;;;;;;;;;;26.80;85.30;;;;;;5052487;28;19912;-72
2022/12/04 01:33:12;;;;;;;;;;;26.80;86.10;;;;;;5057442;28;19916;-71
2022/12/04 01:35:38;;;;;;;;;;;27.00;84.70;;;;;;5057387;28;19909;-73
2022/12/04 01:38:05;;;;;;;;;;;27.00;84.60;;;;;;5057947;28;20403;-69
2022/12/04 01:40:31;;;;;;;;;;;27.00;85.20;;;;;;5058247;28;20443;-72
2022/12/04 01:42:59;;;;;;;;;;;27.30;84.00;;;;;;5052030;28;19931;-69
2022/12/04 01:45:38;;;;;;;;;;;27.40;82.90;;;;;;5038964;28;19919;-71
2022/12/04 01:48:17;;;;;;;;;;;27.40;82.60;;;;;;5037085;28;19921;-73
2022/12/04 01:50:45;;;;;;;;;;;27.30;82.80;;;;;;5041968;28;19912;-72
2022/12/04 01:53:12;;;;;;;;;;;27.20;83.40;;;;;;5045859;28;20101;-72
2022/12/04 01:55:39;;;;;;;;;;;27.10;82.70;;;;;;5045345;28;19909;-71
2022/12/04 01:58:06;;;;;;;;;;;27.20;82.70;;;;;;5046158;28;19912;-77
2022/12/04 02:00:33;;;;;;;;;;;27.30;82.40;;;;;;5048069;28;19924;-71
2022/12/04 02:03:00;;;;;;;;;;;27.20;81.40;;;;;;5043209;28;19909;-72
2022/12/04 02:05:27;;;;;;;;;;;27.50;82.50;;;;;;5047016;28;20493;-70
2022/12/04 02:07:56;;;;;;;;;;;27.70;81.60;;;;;;5046068;28;19908;-76
2022/12/04 02:10:27;;;;;;;;;;;27.60;83.20;;;;;;5049564;28;20376;-69
2022/12/04 02:13:02;;;;;;;;;;;27.90;81.30;;;;;;5042364;28;19920;-73
2022/12/04 02:15:34;;;;;;;;;;;27.50;81.60;;;;;;5037696;28;19912;-74
2022/12/04 02:18:19;;;;;;;;;;;27.50;82.10;;;;;;5035913;28;19924;-71
2022/12/04 02:20:46;;;;;;;;;;;27.70;80.60;;;;;;5036712;28;19945;-72
2022/12/04 02:23:13;;;;;;;;;;;27.80;81.60;;;;;;5036844;28;20837;-71
2022/12/04 02:25:59;;;;;;;;;;;27.70;82.10;;;;;;5039884;28;20397;-70
2022/12/04 02:28:32;;;;;;;;;;;27.90;82.60;;;;;;5037970;28;19955;-70
2022/12/04 02:30:59;;;;;;;;;;;27.80;80.30;;;;;;5037489;28;19912;-73
2022/12/04 02:33:36;;;;;;;;;;;28.10;81.10;;;;;;5038506;28;19912;-72
2022/12/04 02:36:18;;;;;;;;;;;28.00;82.00;;;;;;5036039;28;20346;-73
2022/12/04 02:39:00;;;;;;;;;;;28.10;78.80;;;;;;5037369;28;19913;-70
2022/12/04 02:41:35;;;;;;;;;;;28.30;79.40;;;;;;5036555;28;20591;-72
2022/12/04 02:44:04;;;;;;;;;;;28.50;78.80;;;;;;5039873;28;20312;-70
2022/12/04 02:46:33;;;;;;;;;;;28.80;79.10;;;;;;5038215;28;20358;-79
2022/12/04 02:49:01;;;;;;;;;;;28.80;77.00;;;;;;5037450;28;19948;-76
2022/12/04 02:51:30;;;;;;;;;;;28.80;74.90;;;;;;5038301;28;19909;-70
2022/12/04 02:53:59;;;;;;;;;;;29.10;75.00;;;;;;5038406;28;19962;-72
2022/12/04 02:56:28;;;;;;;;;;;29.30;75.00;;;;;;5054720;28;19974;-70
2022/12/04 02:58:56;;;;;;;;;;;29.90;76.00;;;;;;5057632;28;19919;-71
2022/12/04 03:01:26;;;;;;;;;;;30.10;73.70;;;;;;5055202;28;20410;-72
2022/12/04 03:04:00;;;;;;;;;;;30.30;72.00;;;;;;5056141;28;19958;-71
2022/12/04 03:06:29;;;;;;;;;;;31.10;73.10;;;;;;5040780;28;19921;-72
2022/12/04 03:09:15;;;;;;;;;;;31.60;70.30;;;;;;5037265;28;19920;-71
2022/12/04 03:11:45;;;;;;;;;;;32.00;70.50;;;;;;5026074;28;19913;-72
2022/12/04 03:14:17;;;;;;;;;;;31.90;68.90;;;;;;5041506;28;19913;-72
2022/12/04 03:16:45;;;;;;;;;;;32.20;66.30;;;;;;5056408;28;19928;-70
2022/12/04 03:19:15;;;;;;;;;;;32.60;65.20;;;;;;5055382;28;19951;-72
2022/12/04 03:21:50;;;;;;;;;;;32.30;66.90;;;;;;5055939;28;19935;-72
2022/12/04 03:24:22;;;;;;;;;;;32.80;64.70;;;;;;5053292;28;19921;-71
2022/12/04 03:26:57;;;;;;;;;;;32.90;65.00;;;;;;5053598;28;19909;-71
2022/12/04 03:29:26;;;;;;;;;;;33.60;65.70;;;;;;5051532;28;19912;-72
2022/12/04 03:31:56;;;;;;;;;;;34.90;63.10;;;;;;5055993;28;20604;-71
2022/12/04 03:34:32;;;;;;;;;;;35.00;63.80;;;;;;5055034;28;19913;-72
2022/12/04 03:37:03;;;;;;;;;;;35.90;62.50;;;;;;5054726;28;20696;-72
2022/12/04 03:39:37;;;;;;;;;;;35.50;59.50;;;;;;5053856;28;19919;-71
2022/12/04 03:42:21;;;;;;;;;;;35.10;60.70;;;;;;5056596;28;19912;-70
2022/12/04 03:44:52;;;;;;;;;;;34.50;60.50;;;;;;5055583;28;19983;-73
2022/12/04 03:47:22;;;;;;;;;;;34.50;62.50;;;;;;5055131;28;20532;-73
2022/12/04 03:50:07;;;;;;;;;;;34.80;60.00;;;;;;5055133;28;20379;-71
2022/12/04 03:52:56;;;;;;;;;;;34.80;60.90;;;;;;5053876;28;19915;-71
2022/12/04 03:55:23;;;;;;;;;;;34.30;60.10;;;;;;5054670;28;19962;-70
2022/12/04 03:57:50;;;;;;;;;;;33.60;62.20;;;;;;5054656;28;19935;-70
2022/12/04 04:00:18;;;;;;;;;;;34.20;60.50;;;;;;5034437;28;20277;-72
2022/12/04 04:02:54;;;;;;;;;;;34.30;61.00;;;;;;5035316;28;20597;-71
2022/12/04 04:05:22;;;;;;;;;;;34.40;60.00;;;;;;5035105;28;20302;-71
2022/12/04 04:07:55;;;;;;;;;;;34.80;60.00;;;;;;5038003;28;19962;-71
2022/12/04 04:10:24;;;;;;;;;;;35.10;59.80;;;;;;5055133;28;19915;-71
2022/12/04 04:24:16;;;;;;;;;;;34.00;60.00;;;;;;5056099;28;20332;-73
2022/12/04 04:26:44;;;;;;;;;;;34.10;61.70;;;;;;5054738;28;19908;-73
2022/12/04 04:29:11;;;;;;;;;;;34.00;61.30;;;;;;5051304;28;19935;-70
2022/12/04 04:31:41;;;;;;;;;;;34.20;61.50;;;;;;5050431;28;19913;-72
2022/12/04 04:34:13;;;;;;;;;;;34.60;61.60;;;;;;5055360;28;20358;-73
2022/12/04 04:36:43;;;;;;;;;;;33.30;63.10;;;;;;5050152;28;19947;-73
2022/12/04 04:39:18;;;;;;;;;;;33.30;63.00;;;;;;5055306;28;20357;-73
2022/12/04 04:41:50;;;;;;;;;;;33.60;61.90;;;;;;5049451;28;19948;-72
2022/12/04 04:44:40;;;;;;;;;;;33.50;61.80;;;;;;5034598;28;19912;-72
2022/12/04 04:47:11;;;;;;;;;;;33.50;61.90;;;;;;5005663;28;19920;-73
2022/12/04 04:49:39;;;;;;;;;;;33.60;62.40;;;;;;5034449;28;19913;-72
2022/12/04 04:52:05;;;;;;;;;;;33.80;62.80;;;;;;5034982;28;19909;-73
2022/12/04 04:54:33;;;;;;;;;;;34.10;63.40;;;;;;5041821;28;19959;-73
2022/12/04 04:56:59;;;;;;;;;;;34.60;61.30;;;;;;5053607;28;20369;-73
2022/12/04 04:59:26;;;;;;;;;;;34.70;60.50;;;;;;5054840;28;19919;-72
2022/12/04 05:01:53;;;;;;;;;;;34.00;63.40;;;;;;5053265;28;19913;-73
2022/12/04 05:04:19;;;;;;;;;;;34.20;61.80;;;;;;5035814;28;19913;-72
2022/12/04 05:06:47;;;;;;;;;;;33.70;60.80;;;;;;5035045;28;20289;-72
2022/12/04 05:09:14;;;;;;;;;;;33.40;61.30;;;;;;5034545;28;19917;-73
2022/12/04 05:11:41;;;;;;;;;;;33.30;60.40;;;;;;5035072;28;19909;-71
2022/12/04 05:14:08;;;;;;;;;;;33.50;59.60;;;;;;5038693;28;19915;-73
2022/12/04 05:16:35;;;;;;;;;;;33.30;59.80;;;;;;5039033;28;19920;-73
2022/12/04 05:21:46;;;;;;;;;;;32.30;63.70;;;;;;5037101;28;20008;-71
2022/12/04 05:24:13;;;;;;;;;;;32.20;63.80;;;;;;5045708;28;20019;-72
2022/12/04 05:26:39;;;;;;;;;;;32.00;64.80;;;;;;5058184;28;19916;-74
2022/12/04 05:29:06;;;;;;;;;;;32.20;64.40;;;;;;5049178;28;20011;-72
2022/12/04 05:31:33;;;;;;;;;;;32.90;64.00;;;;;;5045978;28;20745;-72
2022/12/04 05:33:59;;;;;;;;;;;33.10;63.10;;;;;;5048891;28;20011;-72
2022/12/04 05:36:26;;;;;;;;;;;32.20;64.50;;;;;;5047089;28;19920;-75
2022/12/04 05:38:52;;;;;;;;;;;32.00;63.90;;;;;;5046477;28;19920;-73
2022/12/04 05:41:19;;;;;;;;;;;31.20;64.80;;;;;;5036603;28;19932;-76
2022/12/04 05:43:46;;;;;;;;;;;31.10;67.30;;;;;;5047733;28;20293;-74
2022/12/04 05:46:12;;;;;;;;;;;31.00;67.40;;;;;;5052127;28;19987;-74
2022/12/04 05:48:39;;;;;;;;;;;30.80;68.80;;;;;;5058097;28;20007;-73
2022/12/04 05:51:06;;;;;;;;;;;30.50;68.40;;;;;;5057761;28;20493;-73
2022/12/04 05:53:33;;;;;;;;;;;29.60;70.00;;;;;;5054337;28;20231;-73
2022/12/04 05:56:01;;;;;;;;;;;28.50;72.30;;;;;;5038371;28;19917;-74
2022/12/04 05:58:30;;;;;;;;;;;28.10;72.80;;;;;;5049111;28;20002;-72
2022/12/04 06:00:56;;;;;;;;;;;28.00;72.70;;;;;;5058219;28;20371;-71
2022/12/04 06:03:23;;;;;;;;;;;27.80;71.40;;;;;;5056874;28;19909;-72
2022/12/04 06:05:50;;;;;;;;;;;27.50;72.60;;;;;;5057030;28;20000;-72
2022/12/04 06:08:16;;;;;;;;;;;27.40;74.10;;;;;;5053769;28;19909;-72
2022/12/04 06:10:43;;;;;;;;;;;27.40;73.60;;;;;;5048328;28;19916;-72
2022/12/04 06:13:09;;;;;;;;;;;26.90;75.20;;;;;;5057234;28;20180;-72
2022/12/04 06:15:39;;;;;;;;;;;26.60;76.50;;;;;;5053058;28;20326;-72
2022/12/04 06:18:06;;;;;;;;;;;26.50;77.70;;;;;;5040074;28;19918;-72
2022/12/04 06:20:33;;;;;;;;;;;26.60;78.60;;;;;;5046750;28;19938;-71
2022/12/04 06:23:00;;;;;;;;;;;26.40;79.60;;;;;;5044342;28;20401;-72
2022/12/04 06:25:26;;;;;;;;;;;26.40;78.60;;;;;;5045832;28;19927;-72
2022/12/04 06:27:53;;;;;;;;;;;26.20;78.80;;;;;;5039138;28;19924;-70
2022/12/04 06:30:20;;;;;;;;;;;25.80;80.20;;;;;;5044587;28;19943;-69
2022/12/04 06:32:46;;;;;;;;;;;25.50;81.90;;;;;;5046270;28;19916;-70
2022/12/04 06:35:13;;;;;;;;;;;25.40;82.60;;;;;;5053661;28;19957;-70
2022/12/04 06:37:40;;;;;;;;;;;25.40;82.80;;;;;;5051614;28;20361;-70
2022/12/04 06:40:07;;;;;;;;;;;25.30;82.20;;;;;;5043721;28;20420;-71
2022/12/04 06:42:33;;;;;;;;;;;25.50;82.50;;;;;;5041301;28;20369;-71
2022/12/04 06:45:00;;;;;;;;;;;25.40;82.90;;;;;;5048511;28;20502;-72
2022/12/04 06:47:26;;;;;;;;;;;25.50;82.70;;;;;;5056086;28;20053;-72
2022/12/04 06:49:53;;;;;;;;;;;25.40;82.80;;;;;;5051973;28;19981;-69
2022/12/04 06:52:20;;;;;;;;;;;25.50;83.10;;;;;;5036518;28;20008;-68
2022/12/04 06:54:46;;;;;;;;;;;25.50;82.30;;;;;;5039207;28;19964;-69
2022/12/04 06:57:13;;;;;;;;;;;25.50;82.00;;;;;;5044883;28;19924;-68
2022/12/04 06:59:40;;;;;;;;;;;25.30;82.00;;;;;;5049262;28;19936;-68
2022/12/04 07:02:08;;;;;;;;;;;25.10;83.00;;;;;;5053924;28;20361;-68
2022/12/04 07:04:34;;;;;;;;;;;24.90;83.40;;;;;;5046879;28;20365;-69
2022/12/04 07:07:01;;;;;;;;;;;24.90;84.40;;;;;;5033410;28;19913;-70
2022/12/04 07:09:28;;;;;;;;;;;24.80;84.90;;;;;;5035118;28;20820;-72
2022/12/04 07:11:54;;;;;;;;;;;24.70;85.50;;;;;;5055126;28;19920;-69
2022/12/04 07:14:21;;;;;;;;;;;24.90;85.30;;;;;;5053782;28;19912;-67
2022/12/04 07:16:48;;;;;;;;;;;24.50;84.00;;;;;;5055448;28;20285;-69
2022/12/04 07:19:14;;;;;;;;;;;24.30;85.20;;;;;;5055088;28;19909;-67
2022/12/04 07:21:41;;;;;;;;;;;24.30;86.30;;;;;;5045608;28;19909;-68
2022/12/04 07:24:12;;;;;;;;;;;24.20;86.50;;;;;;5035016;28;20420;-68
2022/12/04 07:26:38;;;;;;;;;;;24.30;87.00;;;;;;5036900;28;19908;-70
2022/12/04 07:29:05;;;;;;;;;;;24.20;86.50;;;;;;5034714;28;19987;-69
2022/12/04 07:31:31;;;;;;;;;;;24.00;86.00;;;;;;5035953;28;20129;-69
2022/12/04 07:33:58;;;;;;;;;;;24.00;85.60;;;;;;5035655;28;19909;-71
2022/12/04 07:36:25;;;;;;;;;;;23.90;86.40;;;;;;5035162;28;19970;-70
2022/12/04 07:38:53;;;;;;;;;;;23.70;87.40;;;;;;5036110;28;19910;-70
2022/12/04 07:41:20;;;;;;;;;;;23.70;86.80;;;;;;5033988;28;20399;-70
2022/12/04 07:43:47;;;;;;;;;;;23.70;85.50;;;;;;5036953;28;20315;-69
2022/12/04 07:46:15;;;;;;;;;;;23.60;85.30;;;;;;5035421;28;19956;-71
2022/12/04 07:48:42;;;;;;;;;;;23.40;85.90;;;;;;5036802;28;19909;-68
2022/12/04 07:51:13;;;;;;;;;;;23.40;84.60;;;;;;5034437;28;19920;-71
2022/12/04 07:53:40;;;;;;;;;;;23.30;84.90;;;;;;5041312;28;20003;-70
2022/12/04 07:56:07;;;;;;;;;;;23.20;86.10;;;;;;5054805;28;19916;-69
2022/12/04 07:58:34;;;;;;;;;;;23.30;86.70;;;;;;5042356;28;19948;-68
2022/12/04 08:01:08;;;;;;;;;;;23.30;87.40;;;;;;5036422;28;20365;-69
2022/12/04 08:03:35;;;;;;;;;;;23.20;87.40;;;;;;5035650;28;20405;-67
2022/12/04 08:06:02;;;;;;;;;;;23.30;87.30;;;;;;5037907;28;20015;-68
2022/12/04 08:08:29;;;;;;;;;;;23.10;87.90;;;;;;5046248;28;19920;-68
2022/12/04 08:10:56;;;;;;;;;;;23.00;88.30;;;;;;5040118;28;20372;-69
2022/12/04 08:13:22;;;;;;;;;;;22.80;89.20;;;;;;5037254;28;19909;-70
2022/12/04 08:15:49;;;;;;;;;;;22.60;89.80;;;;;;5056297;28;19908;-69
2022/12/04 08:18:16;;;;;;;;;;;22.50;90.40;;;;;;5050793;28;19947;-69
2022/12/04 08:20:42;;;;;;;;;;;22.50;90.20;;;;;;5054773;28;19923;-68
2022/12/04 08:23:09;;;;;;;;;;;22.30;90.60;;;;;;5055375;28;19908;-69
2022/12/04 08:25:39;;;;;;;;;;;22.20;90.50;;;;;;5052121;28;19915;-68
2022/12/04 08:28:06;;;;;;;;;;;22.10;90.30;;;;;;5044014;28;20284;-71
2022/12/04 08:30:33;;;;;;;;;;;22.10;90.30;;;;;;5048267;28;20081;-69
2022/12/04 08:33:00;;;;;;;;;;;22.10;90.10;;;;;;5048639;28;19920;-67
2022/12/04 08:35:27;;;;;;;;;;;22.10;89.70;;;;;;5053290;28;19912;-67
2022/12/04 08:37:53;;;;;;;;;;;22.00;89.40;;;;;;5050072;28;19925;-67
2022/12/04 08:40:20;;;;;;;;;;;22.00;90.20;;;;;;5036172;28;19952;-67
2022/12/04 08:42:47;;;;;;;;;;;21.90;90.30;;;;;;5036700;28;20006;-67
2022/12/04 08:45:14;;;;;;;;;;;21.80;90.80;;;;;;5036874;28;20021;-69
2022/12/04 08:47:40;;;;;;;;;;;21.80;91.10;;;;;;5040499;28;19916;-67
2022/12/04 08:50:07;;;;;;;;;;;21.70;91.20;;;;;;5053940;28;19913;-69
2022/12/04 08:52:34;;;;;;;;;;;21.60;91.30;;;;;;5044802;28;19953;-68
2022/12/04 08:55:00;;;;;;;;;;;21.50;91.30;;;;;;5047604;28;19974;-70
2022/12/04 08:57:27;;;;;;;;;;;21.50;91.80;;;;;;5048440;28;19927;-69
2022/12/04 08:59:54;;;;;;;;;;;21.50;92.30;;;;;;5048785;28;20011;-69
2022/12/04 09:02:20;;;;;;;;;;;21.40;92.60;;;;;;5048061;28;19916;-67
2022/12/04 09:04:47;;;;;;;;;;;21.30;93.10;;;;;;5047079;28;19912;-74
2022/12/04 09:07:13;;;;;;;;;;;21.30;93.40;;;;;;5047188;28;19924;-72
2022/12/04 09:09:40;;;;;;;;;;;21.30;93.70;;;;;;5047199;28;19913;-66
2022/12/04 09:12:07;;;;;;;;;;;21.30;93.80;;;;;;5049247;28;19912;-67
2022/12/04 09:14:33;;;;;;;;;;;21.30;94.10;;;;;;5045841;28;20377;-68
2022/12/04 09:17:00;;;;;;;;;;;21.30;94.20;;;;;;5046021;28;19920;-67
2022/12/04 09:19:27;;;;;;;;;;;21.20;94.20;;;;;;5049226;28;20381;-70
2022/12/04 09:21:53;;;;;;;;;;;21.20;94.50;;;;;;5046173;28;19912;-68
2022/12/04 09:24:20;;;;;;;;;;;21.20;94.90;;;;;;5048846;28;19978;-68
2022/12/04 09:26:47;;;;;;;;;;;21.10;95.20;;;;;;5044427;28;19920;-71
2022/12/04 09:29:14;;;;;;;;;;;21.10;95.60;;;;;;5056206;28;19952;-68
2022/12/04 09:31:40;;;;;;;;;;;21.10;95.80;;;;;;5041837;28;20586;-70
2022/12/04 09:34:07;;;;;;;;;;;21.00;96.10;;;;;;5041336;28;19959;-70
2022/12/04 09:36:34;;;;;;;;;;;21.00;96.30;;;;;;5044788;28;19924;-68
2022/12/04 09:39:01;;;;;;;;;;;21.10;96.40;;;;;;5048951;28;19996;-69
2022/12/04 09:41:47;;;;;;;;;;;21.00;96.50;;;;;;5048696;28;19974;-69
2022/12/04 09:44:23;;;;;;;;;;;21.00;96.90;;;;;;5049451;28;19948;-68
2022/12/04 09:46:52;;;;;;;;;;;21.00;97.40;;;;;;5046058;28;19912;-69
2022/12/04 09:49:23;;;;;;;;;;;21.00;97.80;;;;;;5046738;28;19920;-69
2022/12/04 09:51:51;;;;;;;;;;;21.00;98.10;;;;;;5047353;28;19920;-69
2022/12/04 09:54:20;;;;;;;;;;;21.00;98.40;;;;;;5048696;28;19983;-68
2022/12/04 09:56:51;;;;;;;;;;;21.00;98.60;;;;;;5047362;28;19932;-68
2022/12/04 09:59:24;;;;;;;;;;;20.90;98.70;;;;;;5046146;28;19916;-71
2022/12/04 10:01:50;;;;;;;;;;;20.90;98.90;;;;;;5048994;28;19912;-71
2022/12/04 10:04:18;;;;;;;;;;;20.90;99.10;;;;;;5045817;28;20413;-67
2022/12/04 10:06:44;;;;;;;;;;;20.80;99.30;;;;;;5050366;28;19931;-68
2022/12/04 10:09:23;;;;;;;;;;;20.80;99.50;;;;;;5053387;28;19935;-67
2022/12/04 10:11:56;;;;;;;;;;;20.80;99.60;;;;;;5046311;28;19983;-68
2022/12/04 10:14:26;;;;;;;;;;;20.70;99.70;;;;;;5048718;28;19913;-70
2022/12/04 10:16:52;;;;;;;;;;;20.80;99.80;;;;;;5046763;28;19916;-70
2022/12/04 10:19:31;;;;;;;;;;;20.80;99.60;;;;;;5046151;28;19915;-69
2022/12/04 10:22:09;;;;;;;;;;;20.80;99.50;;;;;;5046176;28;19944;-69
2022/12/04 10:24:53;;;;;;;;;;;20.80;99.70;;;;;;5045190;28;20085;-68
2022/12/04 10:27:20;;;;;;;;;;;20.80;99.80;;;;;;5044984;28;19916;-67
2022/12/04 10:29:48;;;;;;;;;;;20.80;99.70;;;;;;5045587;28;20010;-72
2022/12/04 10:32:21;;;;;;;;;;;20.80;99.90;;;;;;5047252;28;19908;-68
2022/12/04 10:34:50;;;;;;;;;;;20.80;99.90;;;;;;5046953;28;19917;-69
2022/12/04 10:37:16;;;;;;;;;;;20.70;99.90;;;;;;5043790;28;19920;-70
2022/12/04 10:39:49;;;;;;;;;;;20.70;99.90;;;;;;5050983;28;19913;-68
2022/12/04 10:42:15;;;;;;;;;;;20.60;99.90;;;;;;5036275;28;19920;-71
2022/12/04 10:44:42;;;;;;;;;;;20.60;99.90;;;;;;5043230;28;19920;-69
2022/12/04 10:47:09;;;;;;;;;;;20.60;99.90;;;;;;5047975;28;20050;-71
2022/12/04 10:49:36;;;;;;;;;;;20.50;99.90;;;;;;5043604;28;19916;-69
2022/12/04 10:52:04;;;;;;;;;;;20.50;99.90;;;;;;5045285;28;19924;-70
2022/12/04 10:54:32;;;;;;;;;;;20.50;99.90;;;;;;5043893;28;19999;-69
2022/12/04 10:57:00;;;;;;;;;;;20.50;99.90;;;;;;5045054;28;20388;-67
2022/12/04 10:59:27;;;;;;;;;;;20.50;99.90;;;;;;5046917;28;19912;-67
2022/12/04 11:02:00;;;;;;;;;;;20.50;99.90;;;;;;5048486;28;20159;-67
2022/12/04 11:04:29;;;;;;;;;;;20.50;99.90;;;;;;5038135;28;19912;-68
2022/12/04 11:07:22;;;;;;;;;;;20.60;99.90;;;;;;5038944;28;19913;-68
2022/12/04 11:10:00;;;;;;;;;;;20.60;99.90;;;;;;5033804;28;19912;-68
2022/12/04 11:12:26;;;;;;;;;;;20.50;99.90;;;;;;5038005;28;19912;-71
2022/12/04 11:15:00;;;;;;;;;;;20.50;99.90;;;;;;5036756;28;20250;-70
2022/12/04 11:17:27;;;;;;;;;;;20.50;99.90;;;;;;5049547;28;20305;-68
2022/12/04 11:20:03;;;;;;;;;;;20.50;99.90;;;;;;5052296;28;20284;-69
2022/12/04 11:22:30;;;;;;;;;;;20.50;99.90;;;;;;5036773;28;20289;-68
2022/12/04 11:24:58;;;;;;;;;;;20.40;99.90;;;;;;5036414;28;20630;-68
2022/12/04 11:27:30;;;;;;;;;;;20.40;99.90;;;;;;5036131;28;19935;-67
2022/12/04 11:30:00;;;;;;;;;;;20.40;99.90;;;;;;5034956;28;20000;-68
2022/12/04 11:32:32;;;;;;;;;;;20.30;99.90;;;;;;5042623;28;19917;-67
2022/12/04 11:35:00;;;;;;;;;;;20.30;99.90;;;;;;5054898;28;19916;-68
2022/12/04 11:37:29;;;;;;;;;;;20.40;99.90;;;;;;5054143;28;19920;-68
2022/12/04 11:39:56;;;;;;;;;;;20.40;99.90;;;;;;5054182;28;20273;-69
2022/12/04 11:42:30;;;;;;;;;;;20.30;99.90;;;;;;5052281;28;19916;-68
2022/12/04 11:45:00;;;;;;;;;;;20.30;99.90;;;;;;5046530;28;19913;-68
2022/12/04 11:47:30;;;;;;;;;;;20.30;99.90;;;;;;5056268;28;20246;-69
2022/12/04 11:50:20;;;;;;;;;;;20.30;99.90;;;;;;5042667;28;19917;-69
2022/12/04 11:53:01;;;;;;;;;;;20.30;99.90;;;;;;5053833;28;19913;-69
2022/12/04 11:55:43;;;;;;;;;;;20.30;99.90;;;;;;5043003;28;20101;-69
2022/12/04 11:58:28;;;;;;;;;;;20.30;99.90;;;;;;5036243;28;19921;-71
2022/12/04 12:01:13;;;;;;;;;;;20.30;99.90;;;;;;5033764;28;20269;-69
2022/12/04 12:03:43;;;;;;;;;;;20.30;99.90;;;;;;5036697;28;19991;-67
2022/12/04 12:06:09;;;;;;;;;;;20.30;99.90;;;;;;5043887;28;19920;-67
2022/12/04 12:08:39;;;;;;;;;;;20.20;99.90;;;;;;5054831;28;19909;-69
2022/12/04 12:11:05;;;;;;;;;;;20.30;99.90;;;;;;5040771;28;19999;-68
2022/12/04 12:13:32;;;;;;;;;;;20.20;99.90;;;;;;5035971;28;20003;-69
2022/12/04 12:16:07;;;;;;;;;;;20.20;99.90;;;;;;5035278;28;19909;-71
2022/12/04 12:18:43;;;;;;;;;;;20.30;99.90;;;;;;5036042;28;19949;-68
2022/12/04 12:21:12;;;;;;;;;;;20.20;99.90;;;;;;5038692;28;19909;-67
2022/12/04 12:23:39;;;;;;;;;;;20.30;99.90;;;;;;5059196;28;19920;-70
2022/12/04 12:26:10;;;;;;;;;;;20.30;99.90;;;;;;5061008;28;19930;-69
2022/12/04 12:28:49;;;;;;;;;;;20.30;99.90;;;;;;5062696;28;19909;-67
2022/12/04 12:31:29;;;;;;;;;;;20.20;99.90;;;;;;5062310;28;19912;-68
2022/12/04 12:34:08;;;;;;;;;;;20.20;99.90;;;;;;5061048;28;19915;-67
2022/12/04 12:36:37;;;;;;;;;;;20.20;99.90;;;;;;5062431;28;19921;-68
2022/12/04 12:39:11;;;;;;;;;;;20.20;99.90;;;;;;5059356;28;19919;-68
2022/12/04 12:41:52;;;;;;;;;;;20.20;99.90;;;;;;5062359;28;19909;-68
2022/12/04 12:44:25;;;;;;;;;;;20.20;99.90;;;;;;5060993;28;20493;-66
2022/12/04 12:46:57;;;;;;;;;;;20.20;99.90;;;;;;5062098;28;19923;-67
2022/12/04 12:49:36;;;;;;;;;;;20.20;99.90;;;;;;5060522;28;19924;-68
2022/12/04 12:52:11;;;;;;;;;;;20.20;99.90;;;;;;5050556;28;19912;-67
2022/12/04 12:54:53;;;;;;;;;;;20.20;99.90;;;;;;5056334;28;19913;-68
2022/12/04 12:57:30;;;;;;;;;;;20.20;99.90;;;;;;5062317;28;19939;-68
2022/12/04 13:00:04;;;;;;;;;;;20.20;99.90;;;;;;5060567;28;19913;-69
2022/12/04 13:02:40;;;;;;;;;;;20.20;99.90;;;;;;5048849;28;19939;-68
2022/12/04 13:05:12;;;;;;;;;;;20.10;99.90;;;;;;5043106;28;19916;-67
2022/12/04 13:07:42;;;;;;;;;;;20.10;99.90;;;;;;5050415;28;19919;-69
2022/12/04 13:10:11;;;;;;;;;;;20.00;99.90;;;;;;5058940;28;19955;-69
2022/12/04 13:12:51;;;;;;;;;;;19.90;99.90;;;;;;5060738;28;19991;-68
2022/12/04 13:15:20;;;;;;;;;;;19.90;99.90;;;;;;5044014;28;20007;-68
2022/12/04 13:17:48;;;;;;;;;;;19.90;99.90;;;;;;5061512;28;19920;-68
2022/12/04 13:20:32;;;;;;;;;;;19.80;99.90;;;;;;5044774;28;19924;-68
2022/12/04 13:23:11;;;;;;;;;;;19.90;99.90;;;;;;5046517;28;19987;-68
2022/12/04 13:25:45;;;;;;;;;;;19.90;99.90;;;;;;5049363;28;20288;-68
2022/12/04 13:28:32;;;;;;;;;;;19.90;99.90;;;;;;5061769;28;19913;-68
2022/12/04 13:30:59;;;;;;;;;;;19.90;99.90;;;;;;5048804;28;19958;-67
2022/12/04 13:33:38;;;;;;;;;;;19.90;99.90;;;;;;5038825;28;19925;-69
2022/12/04 13:36:31;;;;;;;;;;;19.90;99.90;;;;;;5035216;28;19908;-68
2022/12/04 13:39:04;;;;;;;;;;;20.00;99.90;;;;;;5016507;28;19948;-70
2022/12/04 13:41:32;;;;;;;;;;;20.00;99.90;;;;;;5040213;28;20313;-67
2022/12/04 13:43:59;;;;;;;;;;;20.00;99.90;;;;;;5038512;28;19935;-71
2022/12/04 13:46:33;;;;;;;;;;;19.90;99.90;;;;;;5037907;28;19908;-68
2022/12/04 13:49:21;;;;;;;;;;;19.90;99.90;;;;;;5039955;28;19912;-70
2022/12/04 13:51:48;;;;;;;;;;;19.90;99.90;;;;;;5038108;28;20004;-68
2022/12/04 13:54:15;;;;;;;;;;;19.90;99.90;;;;;;5049923;28;19956;-68
2022/12/04 13:56:43;;;;;;;;;;;19.80;99.90;;;;;;5057457;28;19931;-68
2022/12/04 13:59:30;;;;;;;;;;;19.80;99.90;;;;;;5049407;28;19928;-67
2022/12/04 14:02:01;;;;;;;;;;;19.80;99.90;;;;;;5038181;28;19959;-69
2022/12/04 14:04:30;;;;;;;;;;;19.70;99.90;;;;;;5043763;28;20396;-69
2022/12/04 14:06:59;;;;;;;;;;;19.60;99.90;;;;;;5044631;28;19940;-69
2022/12/04 14:09:27;;;;;;;;;;;19.60;99.90;;;;;;5038426;28;19996;-69
2022/12/04 14:12:04;;;;;;;;;;;19.60;99.90;;;;;;5057076;28;19912;-70
2022/12/04 14:14:37;;;;;;;;;;;19.60;99.90;;;;;;5058529;28;19915;-70
2022/12/04 14:17:04;;;;;;;;;;;19.60;99.90;;;;;;5058035;28;19917;-68
2022/12/04 14:19:35;;;;;;;;;;;19.60;99.90;;;;;;5057885;28;19909;-70
2022/12/04 14:22:03;;;;;;;;;;;19.50;99.90;;;;;;5052003;28;19915;-68
2022/12/04 14:24:31;;;;;;;;;;;19.50;99.90;;;;;;5037350;28;19921;-68
2022/12/04 14:26:58;;;;;;;;;;;19.50;99.90;;;;;;5037114;28;19951;-68
2022/12/04 14:29:24;;;;;;;;;;;19.50;99.90;;;;;;5036349;28;19956;-68
2022/12/04 14:31:52;;;;;;;;;;;19.50;99.90;;;;;;5036024;28;19909;-69
2022/12/04 14:34:21;;;;;;;;;;;19.50;99.90;;;;;;5036476;28;19920;-68
2022/12/04 14:36:49;;;;;;;;;;;19.50;99.90;;;;;;5037909;28;19917;-69
2022/12/04 14:39:23;;;;;;;;;;;19.50;99.90;;;;;;5037991;28;20033;-69
2022/12/04 14:41:51;;;;;;;;;;;19.50;99.90;;;;;;5056156;28;19928;-70
2022/12/04 14:44:25;;;;;;;;;;;19.40;99.90;;;;;;5039344;28;19913;-69
2022/12/04 14:46:52;;;;;;;;;;;19.40;99.90;;;;;;5037638;28;19909;-67